LVMSA SADF-SAZT
Flight info
| Callsign | LVMSA |
|---|---|
| Flight time | 1h 33m |
| Altitude | 6000 |
| Route | DCTA FDO200050 DCT |
| Aircraft | BE36/L-S/C |
Departure
| Time | 2026-05-07 21:13 |
|---|---|
| Airport | San Fernando Airport (SADF) |
Arrival
| Time | 2026-05-07 22:46 |
|---|---|
| Airport | Héroes de Malvinas Airport (SAZT) |
| Time | Latitude | Longitude | Altitude | Speed | Heading |
|---|---|---|---|---|---|
| 2026-05-07 21:01 | -34.44924 | -58.58173 | 8 ft | 0 kts | 150° |
| 2026-05-07 21:05 | -34.44928 | -58.58171 | 8 ft | 3 kts | 163° |
| 2026-05-07 21:06 | -34.44960 | -58.58207 | 8 ft | 8 kts | 241° |
| 2026-05-07 21:06 | -34.44923 | -58.58260 | 8 ft | 10 kts | 329° |
| 2026-05-07 21:06 | -34.44900 | -58.58277 | 8 ft | 0 kts | 329° |
| 2026-05-07 21:06 | -34.44892 | -58.58283 | 8 ft | 0 kts | 322° |
| 2026-05-07 21:11 | -34.44850 | -58.58359 | 8 ft | 10 kts | 268° |
| 2026-05-07 21:12 | -34.44902 | -58.58439 | 8 ft | 25 kts | 223° |
| 2026-05-07 21:12 | -34.45174 | -58.58756 | 9 ft | 74 kts | 223° |
| 2026-05-07 21:12 | -34.45581 | -58.59218 | 90 ft | 86 kts | 226° |
| 2026-05-07 21:12 | -34.46025 | -58.59731 | 290 ft | 91 kts | 227° |
| 2026-05-07 21:13 | -34.46496 | -58.60251 | 486 ft | 91 kts | 223° |
| 2026-05-07 21:13 | -34.47007 | -58.60712 | 668 ft | 91 kts | 219° |
| 2026-05-07 21:13 | -34.47532 | -58.61168 | 799 ft | 95 kts | 220° |
| 2026-05-07 21:13 | -34.48060 | -58.61628 | 986 ft | 94 kts | 221° |
| 2026-05-07 21:14 | -34.48609 | -58.62091 | 1127 ft | 98 kts | 220° |
| 2026-05-07 21:14 | -34.49188 | -58.62592 | 1230 ft | 103 kts | 220° |
| 2026-05-07 21:14 | -34.49794 | -58.63088 | 1336 ft | 107 kts | 220° |
| 2026-05-07 21:14 | -34.50417 | -58.63611 | 1443 ft | 110 kts | 220° |
| 2026-05-07 21:15 | -34.51049 | -58.64141 | 1551 ft | 111 kts | 220° |
| 2026-05-07 21:15 | -34.51684 | -58.64683 | 1651 ft | 112 kts | 220° |
| 2026-05-07 21:15 | -34.52325 | -58.65210 | 1813 ft | 108 kts | 220° |
| 2026-05-07 21:15 | -34.52955 | -58.65681 | 1974 ft | 109 kts | 205° |
| 2026-05-07 21:16 | -34.53729 | -58.65737 | 2160 ft | 111 kts | 191° |
| 2026-05-07 21:16 | -34.54489 | -58.65739 | 2327 ft | 108 kts | 190° |
| 2026-05-07 21:16 | -34.55240 | -58.65732 | 2504 ft | 107 kts | 191° |
| 2026-05-07 21:16 | -34.55977 | -58.65717 | 2682 ft | 105 kts | 189° |
| 2026-05-07 21:17 | -34.56699 | -58.65707 | 2850 ft | 103 kts | 190° |
| 2026-05-07 21:17 | -34.57418 | -58.65700 | 3031 ft | 101 kts | 191° |
| 2026-05-07 21:17 | -34.58116 | -58.65678 | 3208 ft | 100 kts | 190° |
| 2026-05-07 21:17 | -34.58810 | -58.65656 | 3373 ft | 98 kts | 189° |
| 2026-05-07 21:18 | -34.59479 | -58.65638 | 3542 ft | 95 kts | 189° |
| 2026-05-07 21:18 | -34.60126 | -58.65619 | 3706 ft | 92 kts | 190° |
| 2026-05-07 21:18 | -34.60760 | -58.65588 | 3870 ft | 89 kts | 188° |
| 2026-05-07 21:18 | -34.61342 | -58.65229 | 4058 ft | 101 kts | 150° |
| 2026-05-07 21:19 | -34.61920 | -58.64888 | 4222 ft | 88 kts | 175° |
| 2026-05-07 21:19 | -34.62507 | -58.64681 | 4343 ft | 89 kts | 177° |
| 2026-05-07 21:19 | -34.63136 | -58.64508 | 4440 ft | 94 kts | 180° |
| 2026-05-07 21:19 | -34.63799 | -58.64365 | 4523 ft | 98 kts | 182° |
| 2026-05-07 21:20 | -34.64486 | -58.64264 | 4596 ft | 101 kts | 183° |
| 2026-05-07 21:20 | -34.65200 | -58.64191 | 4681 ft | 104 kts | 185° |
| 2026-05-07 21:20 | -34.65940 | -58.64153 | 4759 ft | 108 kts | 187° |
| 2026-05-07 21:20 | -34.66703 | -58.64142 | 4833 ft | 111 kts | 189° |
| 2026-05-07 21:21 | -34.67485 | -58.64159 | 4924 ft | 113 kts | 191° |
| 2026-05-07 21:21 | -34.68291 | -58.64204 | 4999 ft | 116 kts | 191° |
| 2026-05-07 21:21 | -34.69108 | -58.64268 | 5069 ft | 118 kts | 192° |
| 2026-05-07 21:21 | -34.69930 | -58.64352 | 5142 ft | 119 kts | 194° |
| 2026-05-07 21:22 | -34.70761 | -58.64450 | 5219 ft | 121 kts | 193° |
| 2026-05-07 21:22 | -34.71603 | -58.64566 | 5302 ft | 121 kts | 194° |
| 2026-05-07 21:22 | -34.72449 | -58.64697 | 5378 ft | 123 kts | 194° |
| 2026-05-07 21:22 | -34.73296 | -58.64833 | 5458 ft | 123 kts | 196° |
| 2026-05-07 21:23 | -34.74150 | -58.64982 | 5533 ft | 123 kts | 196° |
| 2026-05-07 21:23 | -34.75010 | -58.65138 | 5613 ft | 124 kts | 195° |
| 2026-05-07 21:23 | -34.75876 | -58.65302 | 5687 ft | 125 kts | 196° |
| 2026-05-07 21:23 | -34.76734 | -58.65465 | 5766 ft | 125 kts | 197° |
| 2026-05-07 21:24 | -34.77595 | -58.65640 | 5842 ft | 125 kts | 196° |
| 2026-05-07 21:24 | -34.78468 | -58.65814 | 5886 ft | 128 kts | 196° |
| 2026-05-07 21:24 | -34.79356 | -58.65999 | 5887 ft | 133 kts | 195° |
| 2026-05-07 21:24 | -34.80291 | -58.66195 | 5884 ft | 136 kts | 197° |
| 2026-05-07 21:25 | -34.81231 | -58.66390 | 5881 ft | 139 kts | 196° |
| 2026-05-07 21:25 | -34.82199 | -58.66600 | 5880 ft | 141 kts | 196° |
| 2026-05-07 21:25 | -34.83162 | -58.66803 | 5878 ft | 142 kts | 195° |
| 2026-05-07 21:25 | -34.84146 | -58.67016 | 5876 ft | 142 kts | 196° |
| 2026-05-07 21:26 | -34.85123 | -58.67225 | 5878 ft | 142 kts | 196° |
| 2026-05-07 21:26 | -34.86102 | -58.67439 | 5879 ft | 143 kts | 196° |
| 2026-05-07 21:26 | -34.87087 | -58.67652 | 5877 ft | 144 kts | 196° |
| 2026-05-07 21:26 | -34.88077 | -58.67868 | 5868 ft | 144 kts | 196° |
| 2026-05-07 21:27 | -34.89075 | -58.68086 | 5867 ft | 144 kts | 197° |
| 2026-05-07 21:27 | -34.90065 | -58.68303 | 5861 ft | 144 kts | 197° |
| 2026-05-07 21:27 | -34.91056 | -58.68522 | 5862 ft | 145 kts | 195° |
| 2026-05-07 21:27 | -34.92051 | -58.68739 | 5860 ft | 144 kts | 196° |
| 2026-05-07 21:28 | -34.93045 | -58.68956 | 5861 ft | 144 kts | 196° |
| 2026-05-07 21:28 | -34.94035 | -58.69175 | 5868 ft | 144 kts | 196° |
| 2026-05-07 21:28 | -34.95025 | -58.69395 | 5868 ft | 145 kts | 195° |
| 2026-05-07 21:28 | -34.96036 | -58.69613 | 5869 ft | 146 kts | 197° |
| 2026-05-07 21:29 | -34.97030 | -58.69832 | 5863 ft | 146 kts | 197° |
| 2026-05-07 21:29 | -34.98027 | -58.70054 | 5857 ft | 146 kts | 196° |
| 2026-05-07 21:29 | -34.99024 | -58.70276 | 5864 ft | 146 kts | 196° |
| 2026-05-07 21:29 | -35.00024 | -58.70498 | 5864 ft | 145 kts | 196° |
| 2026-05-07 21:30 | -35.01034 | -58.70719 | 5871 ft | 146 kts | 194° |
| 2026-05-07 21:30 | -35.02036 | -58.70938 | 5866 ft | 146 kts | 197° |
| 2026-05-07 21:30 | -35.03037 | -58.71122 | 5869 ft | 147 kts | 191° |
| 2026-05-07 21:30 | -35.04066 | -58.71225 | 5875 ft | 146 kts | 191° |
| 2026-05-07 21:31 | -35.05082 | -58.71330 | 5869 ft | 146 kts | 191° |
| 2026-05-07 21:31 | -35.06089 | -58.71440 | 5874 ft | 146 kts | 191° |
| 2026-05-07 21:31 | -35.07111 | -58.71547 | 5868 ft | 146 kts | 191° |
| 2026-05-07 21:31 | -35.08126 | -58.71661 | 5869 ft | 146 kts | 191° |
| 2026-05-07 21:32 | -35.09139 | -58.71762 | 5857 ft | 146 kts | 191° |
| 2026-05-07 21:32 | -35.10142 | -58.71879 | 5857 ft | 145 kts | 191° |
| 2026-05-07 21:32 | -35.11153 | -58.72001 | 5863 ft | 145 kts | 191° |
| 2026-05-07 21:32 | -35.12167 | -58.72118 | 5863 ft | 145 kts | 191° |
| 2026-05-07 21:33 | -35.13175 | -58.72228 | 5856 ft | 145 kts | 191° |
| 2026-05-07 21:33 | -35.14187 | -58.72348 | 5858 ft | 145 kts | 191° |
| 2026-05-07 21:33 | -35.15191 | -58.72463 | 5861 ft | 144 kts | 191° |
| 2026-05-07 21:33 | -35.16186 | -58.72588 | 5854 ft | 144 kts | 191° |
| 2026-05-07 21:34 | -35.17197 | -58.72714 | 5849 ft | 145 kts | 192° |
| 2026-05-07 21:34 | -35.18203 | -58.72835 | 5847 ft | 144 kts | 191° |
| 2026-05-07 21:34 | -35.19202 | -58.72961 | 5858 ft | 144 kts | 191° |
| 2026-05-07 21:34 | -35.20197 | -58.73090 | 5851 ft | 144 kts | 191° |
| 2026-05-07 21:35 | -35.21196 | -58.73215 | 5849 ft | 144 kts | 191° |
| 2026-05-07 21:35 | -35.22198 | -58.73332 | 5849 ft | 144 kts | 191° |
| 2026-05-07 21:35 | -35.23192 | -58.73454 | 5847 ft | 145 kts | 191° |
| 2026-05-07 21:35 | -35.24206 | -58.73571 | 5846 ft | 144 kts | 191° |
| 2026-05-07 21:36 | -35.25202 | -58.73684 | 5844 ft | 144 kts | 191° |
| 2026-05-07 21:36 | -35.26208 | -58.73817 | 5841 ft | 144 kts | 191° |
| 2026-05-07 21:36 | -35.27207 | -58.73945 | 5844 ft | 144 kts | 190° |
| 2026-05-07 21:36 | -35.28202 | -58.74086 | 5840 ft | 144 kts | 191° |
| 2026-05-07 21:37 | -35.29200 | -58.74223 | 5845 ft | 144 kts | 191° |
| 2026-05-07 21:37 | -35.30208 | -58.74349 | 5847 ft | 144 kts | 191° |
| 2026-05-07 21:37 | -35.31197 | -58.74475 | 5855 ft | 144 kts | 190° |
| 2026-05-07 21:37 | -35.32236 | -58.74612 | 5606 ft | 159 kts | 191° |
| 2026-05-07 21:38 | -35.33353 | -58.74768 | 5530 ft | 159 kts | 191° |
| 2026-05-07 21:38 | -35.34444 | -58.74921 | 5507 ft | 156 kts | 191° |
| 2026-05-07 21:38 | -35.35513 | -58.75071 | 5508 ft | 154 kts | 191° |
| 2026-05-07 21:38 | -35.36569 | -58.75217 | 5500 ft | 152 kts | 191° |
| 2026-05-07 21:39 | -35.37622 | -58.75354 | 5499 ft | 150 kts | 190° |
| 2026-05-07 21:39 | -35.38658 | -58.75489 | 5497 ft | 148 kts | 191° |
| 2026-05-07 21:39 | -35.39678 | -58.75624 | 5495 ft | 146 kts | 191° |
| 2026-05-07 21:39 | -35.40688 | -58.75758 | 5492 ft | 145 kts | 191° |
| 2026-05-07 21:40 | -35.41691 | -58.75896 | 5499 ft | 144 kts | 190° |
| 2026-05-07 21:40 | -35.42681 | -58.76033 | 5497 ft | 143 kts | 191° |
| 2026-05-07 21:40 | -35.43683 | -58.76178 | 5498 ft | 143 kts | 191° |
| 2026-05-07 21:40 | -35.44662 | -58.76326 | 5498 ft | 142 kts | 191° |
| 2026-05-07 21:41 | -35.45660 | -58.76471 | 5497 ft | 143 kts | 187° |
| 2026-05-07 21:41 | -35.46637 | -58.76190 | 5498 ft | 148 kts | 168° |
| 2026-05-07 21:41 | -35.47622 | -58.75802 | 5499 ft | 148 kts | 168° |
| 2026-05-07 21:41 | -35.48607 | -58.75418 | 5500 ft | 147 kts | 168° |
| 2026-05-07 21:42 | -35.49587 | -58.75035 | 5502 ft | 147 kts | 167° |
| 2026-05-07 21:42 | -35.50557 | -58.74653 | 5498 ft | 147 kts | 168° |
| 2026-05-07 21:42 | -35.51532 | -58.74273 | 5497 ft | 146 kts | 170° |
| 2026-05-07 21:42 | -35.52520 | -58.73996 | 5495 ft | 144 kts | 175° |
| 2026-05-07 21:43 | -35.53504 | -58.73823 | 5492 ft | 143 kts | 179° |
| 2026-05-07 21:43 | -35.54494 | -58.73730 | 5488 ft | 142 kts | 182° |
| 2026-05-07 21:43 | -35.55486 | -58.73707 | 5484 ft | 142 kts | 185° |
| 2026-05-07 21:43 | -35.56480 | -58.73741 | 5485 ft | 141 kts | 187° |
| 2026-05-07 21:44 | -35.57462 | -58.73814 | 5485 ft | 140 kts | 188° |
| 2026-05-07 21:44 | -35.58428 | -58.73922 | 5483 ft | 140 kts | 191° |
| 2026-05-07 21:44 | -35.59406 | -58.74057 | 5486 ft | 140 kts | 191° |
| 2026-05-07 21:44 | -35.60372 | -58.74216 | 5487 ft | 139 kts | 191° |
| 2026-05-07 21:45 | -35.61327 | -58.74388 | 5483 ft | 140 kts | 192° |
| 2026-05-07 21:45 | -35.62297 | -58.74582 | 5488 ft | 139 kts | 193° |
| 2026-05-07 21:45 | -35.63245 | -58.74780 | 5492 ft | 140 kts | 193° |
| 2026-05-07 21:45 | -35.64204 | -58.74985 | 5491 ft | 139 kts | 194° |
| 2026-05-07 21:46 | -35.65161 | -58.75206 | 5496 ft | 139 kts | 194° |
| 2026-05-07 21:46 | -35.66123 | -58.75433 | 5491 ft | 140 kts | 195° |
| 2026-05-07 21:46 | -35.67082 | -58.75663 | 5490 ft | 140 kts | 195° |
| 2026-05-07 21:46 | -35.68036 | -58.75898 | 5492 ft | 139 kts | 194° |
| 2026-05-07 21:47 | -35.68982 | -58.76131 | 5486 ft | 140 kts | 195° |
| 2026-05-07 21:47 | -35.69960 | -58.76178 | 5485 ft | 140 kts | 188° |
| 2026-05-07 21:47 | -35.70905 | -58.76403 | 5489 ft | 139 kts | 191° |
| 2026-05-07 21:47 | -35.71870 | -58.76556 | 5491 ft | 139 kts | 191° |
| 2026-05-07 21:48 | -35.72838 | -58.76711 | 5485 ft | 140 kts | 191° |
| 2026-05-07 21:48 | -35.73811 | -58.76865 | 5490 ft | 140 kts | 191° |
| 2026-05-07 21:48 | -35.74785 | -58.77022 | 5485 ft | 140 kts | 191° |
| 2026-05-07 21:48 | -35.75760 | -58.77182 | 5486 ft | 142 kts | 191° |
| 2026-05-07 21:49 | -35.76744 | -58.77353 | 5483 ft | 144 kts | 191° |
| 2026-05-07 21:49 | -35.77737 | -58.77523 | 5483 ft | 144 kts | 191° |
| 2026-05-07 21:49 | -35.78748 | -58.77701 | 5483 ft | 145 kts | 192° |
| 2026-05-07 21:49 | -35.79756 | -58.77868 | 5483 ft | 146 kts | 191° |
| 2026-05-07 21:50 | -35.80761 | -58.78041 | 5484 ft | 146 kts | 191° |
| 2026-05-07 21:50 | -35.81783 | -58.78212 | 5480 ft | 146 kts | 191° |
| 2026-05-07 21:50 | -35.82795 | -58.78388 | 5480 ft | 147 kts | 191° |
| 2026-05-07 21:50 | -35.83808 | -58.78567 | 5478 ft | 147 kts | 191° |
| 2026-05-07 21:51 | -35.84822 | -58.78733 | 5477 ft | 147 kts | 188° |
| 2026-05-07 21:51 | -35.85846 | -58.78864 | 5480 ft | 147 kts | 190° |
| 2026-05-07 21:51 | -35.86848 | -58.79033 | 5478 ft | 146 kts | 191° |
| 2026-05-07 21:51 | -35.87854 | -58.79230 | 5479 ft | 146 kts | 193° |
| 2026-05-07 21:52 | -35.88860 | -58.79456 | 5480 ft | 145 kts | 193° |
| 2026-05-07 21:52 | -35.89859 | -58.79698 | 5476 ft | 146 kts | 194° |
| 2026-05-07 21:52 | -35.90848 | -58.79951 | 5479 ft | 146 kts | 195° |
| 2026-05-07 21:52 | -35.91835 | -58.80220 | 5477 ft | 146 kts | 195° |
| 2026-05-07 21:53 | -35.92835 | -58.80503 | 5477 ft | 146 kts | 195° |
| 2026-05-07 21:53 | -35.93818 | -58.80786 | 5481 ft | 145 kts | 196° |
| 2026-05-07 21:53 | -35.94801 | -58.81077 | 5479 ft | 146 kts | 196° |
| 2026-05-07 21:53 | -35.95790 | -58.81375 | 5480 ft | 146 kts | 196° |
| 2026-05-07 21:54 | -35.96778 | -58.81677 | 5480 ft | 146 kts | 197° |
| 2026-05-07 21:54 | -35.97769 | -58.81984 | 5474 ft | 146 kts | 197° |
| 2026-05-07 21:54 | -35.98747 | -58.82291 | 5476 ft | 146 kts | 197° |
| 2026-05-07 21:54 | -35.99737 | -58.82601 | 5472 ft | 146 kts | 197° |
| 2026-05-07 21:55 | -36.00730 | -58.82917 | 5472 ft | 146 kts | 197° |
| 2026-05-07 21:55 | -36.01708 | -58.83229 | 5474 ft | 145 kts | 197° |
| 2026-05-07 21:55 | -36.02692 | -58.83542 | 5478 ft | 145 kts | 196° |
| 2026-05-07 21:55 | -36.03672 | -58.83855 | 5479 ft | 145 kts | 196° |
| 2026-05-07 21:56 | -36.04642 | -58.84166 | 5479 ft | 145 kts | 197° |
| 2026-05-07 21:56 | -36.05628 | -58.84486 | 5475 ft | 145 kts | 197° |
| 2026-05-07 21:56 | -36.06600 | -58.84798 | 5469 ft | 145 kts | 197° |
| 2026-05-07 21:56 | -36.07582 | -58.85114 | 5472 ft | 145 kts | 197° |
| 2026-05-07 21:57 | -36.08556 | -58.85428 | 5471 ft | 144 kts | 197° |
| 2026-05-07 21:57 | -36.09523 | -58.85744 | 5472 ft | 142 kts | 197° |
| 2026-05-07 21:57 | -36.10485 | -58.86051 | 5472 ft | 141 kts | 196° |
| 2026-05-07 21:57 | -36.11442 | -58.86353 | 5478 ft | 141 kts | 197° |
| 2026-05-07 21:58 | -36.12382 | -58.86657 | 5474 ft | 140 kts | 197° |
| 2026-05-07 21:58 | -36.13331 | -58.86964 | 5480 ft | 140 kts | 197° |
| 2026-05-07 21:58 | -36.14270 | -58.87265 | 5478 ft | 139 kts | 197° |
| 2026-05-07 21:58 | -36.15213 | -58.87572 | 5477 ft | 140 kts | 197° |
| 2026-05-07 21:59 | -36.16166 | -58.87881 | 5478 ft | 140 kts | 197° |
| 2026-05-07 21:59 | -36.17110 | -58.88189 | 5478 ft | 140 kts | 197° |
| 2026-05-07 21:59 | -36.18061 | -58.88498 | 5477 ft | 141 kts | 197° |
| 2026-05-07 21:59 | -36.19009 | -58.88805 | 5473 ft | 142 kts | 196° |
| 2026-05-07 22:00 | -36.19960 | -58.89113 | 5472 ft | 142 kts | 197° |
| 2026-05-07 22:00 | -36.20923 | -58.89429 | 5469 ft | 142 kts | 197° |
| 2026-05-07 22:00 | -36.21882 | -58.89740 | 5471 ft | 141 kts | 196° |
| 2026-05-07 22:00 | -36.22832 | -58.90048 | 5475 ft | 141 kts | 196° |
| 2026-05-07 22:01 | -36.23788 | -58.90360 | 5475 ft | 141 kts | 196° |
| 2026-05-07 22:01 | -36.24743 | -58.90671 | 5479 ft | 142 kts | 196° |
| 2026-05-07 22:01 | -36.25695 | -58.90979 | 5483 ft | 141 kts | 196° |
| 2026-05-07 22:01 | -36.26649 | -58.91291 | 5489 ft | 141 kts | 196° |
| 2026-05-07 22:02 | -36.27601 | -58.91602 | 5486 ft | 141 kts | 196° |
| 2026-05-07 22:02 | -36.28564 | -58.91916 | 5419 ft | 146 kts | 196° |
| 2026-05-07 22:02 | -36.29563 | -58.92239 | 5257 ft | 152 kts | 197° |
| 2026-05-07 22:02 | -36.30616 | -58.92584 | 5089 ft | 156 kts | 197° |
| 2026-05-07 22:03 | -36.31672 | -58.92930 | 4918 ft | 158 kts | 197° |
| 2026-05-07 22:03 | -36.32737 | -58.93279 | 4747 ft | 159 kts | 197° |
| 2026-05-07 22:03 | -36.33806 | -58.93629 | 4578 ft | 160 kts | 197° |
| 2026-05-07 22:03 | -36.34883 | -58.93981 | 4404 ft | 160 kts | 197° |
| 2026-05-07 22:04 | -36.35965 | -58.94332 | 4227 ft | 159 kts | 197° |
| 2026-05-07 22:04 | -36.37022 | -58.94676 | 4052 ft | 157 kts | 197° |
| 2026-05-07 22:04 | -36.38077 | -58.95021 | 3881 ft | 156 kts | 197° |
| 2026-05-07 22:04 | -36.39125 | -58.95363 | 3705 ft | 155 kts | 197° |
| 2026-05-07 22:05 | -36.40169 | -58.95704 | 3533 ft | 155 kts | 197° |
| 2026-05-07 22:05 | -36.41215 | -58.96047 | 3406 ft | 150 kts | 196° |
| 2026-05-07 22:05 | -36.42168 | -58.96359 | 3476 ft | 136 kts | 197° |
| 2026-05-07 22:05 | -36.43066 | -58.96653 | 3485 ft | 131 kts | 197° |
| 2026-05-07 22:06 | -36.43961 | -58.96944 | 3492 ft | 131 kts | 197° |
| 2026-05-07 22:06 | -36.44839 | -58.97232 | 3484 ft | 132 kts | 197° |
| 2026-05-07 22:06 | -36.45734 | -58.97527 | 3480 ft | 131 kts | 198° |
| 2026-05-07 22:06 | -36.46615 | -58.97813 | 3481 ft | 131 kts | 197° |
| 2026-05-07 22:07 | -36.47494 | -58.98104 | 3476 ft | 130 kts | 197° |
| 2026-05-07 22:07 | -36.48364 | -58.98392 | 3476 ft | 131 kts | 197° |
| 2026-05-07 22:07 | -36.49245 | -58.98680 | 3477 ft | 130 kts | 197° |
| 2026-05-07 22:07 | -36.50124 | -58.98967 | 3487 ft | 130 kts | 197° |
| 2026-05-07 22:08 | -36.51001 | -58.99257 | 3485 ft | 130 kts | 198° |
| 2026-05-07 22:08 | -36.51883 | -58.99543 | 3486 ft | 130 kts | 195° |
| 2026-05-07 22:08 | -36.52757 | -58.99832 | 3493 ft | 129 kts | 198° |
| 2026-05-07 22:08 | -36.53637 | -59.00119 | 3481 ft | 130 kts | 195° |
| 2026-05-07 22:09 | -36.54518 | -59.00410 | 3488 ft | 130 kts | 197° |
| 2026-05-07 22:09 | -36.55398 | -59.00699 | 3498 ft | 131 kts | 197° |
| 2026-05-07 22:09 | -36.56279 | -59.00992 | 3493 ft | 132 kts | 197° |
| 2026-05-07 22:09 | -36.57175 | -59.01284 | 3501 ft | 132 kts | 199° |
| 2026-05-07 22:10 | -36.58067 | -59.01570 | 3506 ft | 133 kts | 198° |
| 2026-05-07 22:10 | -36.58968 | -59.01873 | 3503 ft | 134 kts | 197° |
| 2026-05-07 22:10 | -36.59868 | -59.02170 | 3508 ft | 134 kts | 197° |
| 2026-05-07 22:10 | -36.60776 | -59.02468 | 3498 ft | 134 kts | 196° |
| 2026-05-07 22:11 | -36.61681 | -59.02763 | 3498 ft | 134 kts | 198° |
| 2026-05-07 22:11 | -36.62592 | -59.03064 | 3496 ft | 134 kts | 196° |
| 2026-05-07 22:11 | -36.63484 | -59.03360 | 3478 ft | 133 kts | 196° |
| 2026-05-07 22:11 | -36.64375 | -59.03649 | 3490 ft | 131 kts | 197° |
| 2026-05-07 22:12 | -36.65257 | -59.03937 | 3481 ft | 131 kts | 195° |
| 2026-05-07 22:12 | -36.66146 | -59.04235 | 3474 ft | 131 kts | 196° |
| 2026-05-07 22:12 | -36.67029 | -59.04528 | 3467 ft | 131 kts | 197° |
| 2026-05-07 22:12 | -36.67912 | -59.04813 | 3454 ft | 130 kts | 196° |
| 2026-05-07 22:13 | -36.68779 | -59.05109 | 3456 ft | 129 kts | 195° |
| 2026-05-07 22:13 | -36.69653 | -59.05385 | 3453 ft | 128 kts | 199° |
| 2026-05-07 22:13 | -36.70503 | -59.05673 | 3475 ft | 129 kts | 197° |
| 2026-05-07 22:13 | -36.71377 | -59.05964 | 3481 ft | 131 kts | 197° |
| 2026-05-07 22:14 | -36.72265 | -59.06251 | 3479 ft | 131 kts | 197° |
| 2026-05-07 22:14 | -36.73148 | -59.06540 | 3480 ft | 131 kts | 196° |
| 2026-05-07 22:14 | -36.74049 | -59.06841 | 3486 ft | 132 kts | 196° |
| 2026-05-07 22:14 | -36.74943 | -59.07137 | 3475 ft | 133 kts | 196° |
| 2026-05-07 22:15 | -36.75833 | -59.07433 | 3480 ft | 132 kts | 195° |
| 2026-05-07 22:15 | -36.76721 | -59.07724 | 3468 ft | 132 kts | 197° |
| 2026-05-07 22:15 | -36.77602 | -59.08015 | 3475 ft | 130 kts | 196° |
| 2026-05-07 22:15 | -36.78480 | -59.08302 | 3467 ft | 130 kts | 195° |
| 2026-05-07 22:16 | -36.79350 | -59.08594 | 3484 ft | 128 kts | 197° |
| 2026-05-07 22:16 | -36.80214 | -59.08876 | 3483 ft | 125 kts | 199° |
| 2026-05-07 22:16 | -36.81053 | -59.09159 | 3498 ft | 123 kts | 195° |
| 2026-05-07 22:16 | -36.81858 | -59.09421 | 3514 ft | 118 kts | 196° |
| 2026-05-07 22:17 | -36.82693 | -59.09698 | 3375 ft | 125 kts | 198° |
| 2026-05-07 22:17 | -36.83556 | -59.09980 | 3267 ft | 129 kts | 198° |
| 2026-05-07 22:17 | -36.84432 | -59.10273 | 3125 ft | 130 kts | 198° |
| 2026-05-07 22:17 | -36.85299 | -59.10560 | 2969 ft | 130 kts | 196° |
| 2026-05-07 22:18 | -36.86166 | -59.10851 | 2835 ft | 129 kts | 198° |
| 2026-05-07 22:18 | -36.87899 | -59.11424 | 2506 ft | 128 kts | 198° |
| 2026-05-07 22:18 | -36.88724 | -59.11698 | 2528 ft | 119 kts | 198° |
| 2026-05-07 22:19 | -36.89507 | -59.11957 | 2535 ft | 113 kts | 199° |
| 2026-05-07 22:19 | -36.90264 | -59.12208 | 2508 ft | 108 kts | 199° |
| 2026-05-07 22:19 | -36.90984 | -59.12443 | 2496 ft | 104 kts | 200° |
| 2026-05-07 22:19 | -36.91669 | -59.12674 | 2489 ft | 102 kts | 196° |
| 2026-05-07 22:20 | -36.92339 | -59.12894 | 2509 ft | 97 kts | 198° |
| 2026-05-07 22:20 | -36.93003 | -59.13111 | 2512 ft | 97 kts | 199° |
| 2026-05-07 22:20 | -36.93651 | -59.13329 | 2513 ft | 96 kts | 199° |
| 2026-05-07 22:20 | -36.94299 | -59.13541 | 2525 ft | 95 kts | 199° |
| 2026-05-07 22:21 | -36.94849 | -59.13723 | 2762 ft | 73 kts | 200° |
| 2026-05-07 22:21 | -36.95324 | -59.13881 | 2824 ft | 69 kts | 201° |
| 2026-05-07 22:21 | -36.95791 | -59.14037 | 2841 ft | 71 kts | 199° |
| 2026-05-07 22:21 | -36.96312 | -59.14211 | 2839 ft | 82 kts | 199° |
| 2026-05-07 22:22 | -36.96906 | -59.14409 | 2853 ft | 92 kts | 198° |
| 2026-05-07 22:22 | -36.97562 | -59.14628 | 2841 ft | 102 kts | 199° |
| 2026-05-07 22:22 | -36.98271 | -59.14864 | 2854 ft | 109 kts | 199° |
| 2026-05-07 22:22 | -36.99028 | -59.15116 | 2845 ft | 114 kts | 199° |
| 2026-05-07 22:23 | -36.99812 | -59.15375 | 2855 ft | 117 kts | 198° |
| 2026-05-07 22:23 | -37.00617 | -59.15646 | 2842 ft | 120 kts | 198° |
| 2026-05-07 22:23 | -37.01429 | -59.15913 | 2839 ft | 122 kts | 198° |
| 2026-05-07 22:23 | -37.02255 | -59.16191 | 2848 ft | 123 kts | 198° |
| 2026-05-07 22:24 | -37.03099 | -59.16470 | 2845 ft | 125 kts | 197° |
| 2026-05-07 22:24 | -37.03935 | -59.16749 | 2854 ft | 125 kts | 198° |
| 2026-05-07 22:24 | -37.04786 | -59.17033 | 2848 ft | 126 kts | 198° |
| 2026-05-07 22:24 | -37.05638 | -59.17318 | 2848 ft | 126 kts | 198° |
| 2026-05-07 22:25 | -37.06480 | -59.17596 | 2832 ft | 126 kts | 198° |
| 2026-05-07 22:25 | -37.07334 | -59.17881 | 2835 ft | 126 kts | 198° |
| 2026-05-07 22:25 | -37.08179 | -59.18160 | 2831 ft | 126 kts | 199° |
| 2026-05-07 22:25 | -37.09028 | -59.18444 | 2832 ft | 126 kts | 198° |
| 2026-05-07 22:26 | -37.09882 | -59.18729 | 2830 ft | 126 kts | 197° |
| 2026-05-07 22:26 | -37.10725 | -59.19009 | 2842 ft | 126 kts | 198° |
| 2026-05-07 22:26 | -37.11579 | -59.19294 | 2837 ft | 126 kts | 197° |
| 2026-05-07 22:26 | -37.12425 | -59.19577 | 2839 ft | 126 kts | 197° |
| 2026-05-07 22:27 | -37.13285 | -59.19862 | 2839 ft | 127 kts | 198° |
| 2026-05-07 22:27 | -37.14137 | -59.20146 | 2840 ft | 127 kts | 198° |
| 2026-05-07 22:27 | -37.14996 | -59.20432 | 2832 ft | 128 kts | 198° |
| 2026-05-07 22:27 | -37.15859 | -59.20721 | 2828 ft | 128 kts | 198° |
| 2026-05-07 22:28 | -37.16721 | -59.21008 | 2836 ft | 127 kts | 198° |
| 2026-05-07 22:28 | -37.17582 | -59.21295 | 2837 ft | 128 kts | 198° |
| 2026-05-07 22:28 | -37.18442 | -59.21584 | 2834 ft | 128 kts | 198° |
| 2026-05-07 22:28 | -37.19298 | -59.21869 | 2834 ft | 128 kts | 197° |
| 2026-05-07 22:29 | -37.20159 | -59.22158 | 2836 ft | 128 kts | 198° |
| 2026-05-07 22:29 | -37.21029 | -59.22449 | 2832 ft | 128 kts | 198° |
| 2026-05-07 22:29 | -37.21888 | -59.22738 | 2826 ft | 128 kts | 199° |
| 2026-05-07 22:29 | -37.22696 | -59.23201 | 2803 ft | 128 kts | 222° |
| 2026-05-07 22:30 | -37.22964 | -59.24242 | 2811 ft | 137 kts | 267° |
| 2026-05-07 22:30 | -37.22445 | -59.25311 | 2821 ft | 157 kts | 311° |
| 2026-05-07 22:30 | -37.21354 | -59.25704 | 2827 ft | 173 kts | 357° |
| 2026-05-07 22:30 | -37.20236 | -59.25167 | 2841 ft | 177 kts | 33° |
| 2026-05-07 22:31 | -37.19514 | -59.23953 | 2845 ft | 173 kts | 70° |
| 2026-05-07 22:31 | -37.19019 | -59.22551 | 2815 ft | 176 kts | 70° |
| 2026-05-07 22:31 | -37.18518 | -59.21141 | 2747 ft | 181 kts | 67° |
| 2026-05-07 22:31 | -37.17590 | -59.20046 | 2682 ft | 186 kts | 25° |
| 2026-05-07 22:32 | -37.16430 | -59.19325 | 2611 ft | 189 kts | 22° |
| 2026-05-07 22:32 | -37.15221 | -59.18605 | 2546 ft | 191 kts | 22° |
| 2026-05-07 22:32 | -37.14028 | -59.17898 | 2480 ft | 192 kts | 22° |
| 2026-05-07 22:32 | -37.12804 | -59.17216 | 2384 ft | 192 kts | 20° |
| 2026-05-07 22:33 | -37.11581 | -59.16536 | 2292 ft | 191 kts | 22° |
| 2026-05-07 22:33 | -37.10388 | -59.15837 | 2158 ft | 189 kts | 20° |
| 2026-05-07 22:33 | -37.09219 | -59.15170 | 2248 ft | 175 kts | 20° |
| 2026-05-07 22:33 | -37.08138 | -59.14550 | 2228 ft | 172 kts | 21° |
| 2026-05-07 22:34 | -37.07037 | -59.13919 | 2135 ft | 172 kts | 20° |
| 2026-05-07 22:34 | -37.05979 | -59.13269 | 2156 ft | 167 kts | 25° |
| 2026-05-07 22:34 | -37.04898 | -59.12777 | 2076 ft | 166 kts | 3° |
| 2026-05-07 22:34 | -37.03811 | -59.12891 | 2098 ft | 153 kts | 331° |
| 2026-05-07 22:35 | -37.02948 | -59.13533 | 2131 ft | 135 kts | 301° |
| 2026-05-07 22:35 | -37.02337 | -59.14373 | 2186 ft | 132 kts | 303° |
| 2026-05-07 22:35 | -37.01724 | -59.15243 | 2204 ft | 128 kts | 288° |
| 2026-05-07 22:35 | -37.01496 | -59.16250 | 2230 ft | 119 kts | 261° |
| 2026-05-07 22:36 | -37.01751 | -59.17201 | 2123 ft | 119 kts | 229° |
| 2026-05-07 22:36 | -37.02374 | -59.17862 | 2146 ft | 115 kts | 216° |
| 2026-05-07 22:36 | -37.03011 | -59.18422 | 2231 ft | 108 kts | 214° |
| 2026-05-07 22:36 | -37.03624 | -59.18925 | 2268 ft | 106 kts | 213° |
| 2026-05-07 22:37 | -37.04245 | -59.19434 | 2264 ft | 106 kts | 214° |
| 2026-05-07 22:37 | -37.04942 | -59.19782 | 2230 ft | 113 kts | 193° |
| 2026-05-07 22:37 | -37.05720 | -59.19942 | 2232 ft | 111 kts | 194° |
| 2026-05-07 22:37 | -37.06387 | -59.20094 | 2152 ft | 88 kts | 193° |
| 2026-05-07 22:38 | -37.06952 | -59.20163 | 2134 ft | 76 kts | 190° |
| 2026-05-07 22:38 | -37.07452 | -59.20258 | 2112 ft | 69 kts | 204° |
| 2026-05-07 22:38 | -37.07939 | -59.20353 | 2038 ft | 72 kts | 191° |
| 2026-05-07 22:38 | -37.08443 | -59.20381 | 2033 ft | 72 kts | 191° |
| 2026-05-07 22:39 | -37.08900 | -59.20593 | 2027 ft | 70 kts | 205° |
| 2026-05-07 22:39 | -37.09366 | -59.20764 | 2068 ft | 70 kts | 197° |
| 2026-05-07 22:39 | -37.09852 | -59.20853 | 2126 ft | 69 kts | 193° |
| 2026-05-07 22:39 | -37.10349 | -59.20892 | 2148 ft | 73 kts | 189° |
| 2026-05-07 22:40 | -37.10858 | -59.20919 | 2169 ft | 73 kts | 192° |
| 2026-05-07 22:40 | -37.11362 | -59.20971 | 2187 ft | 72 kts | 192° |
| 2026-05-07 22:40 | -37.11869 | -59.21040 | 2182 ft | 73 kts | 193° |
| 2026-05-07 22:40 | -37.12379 | -59.21117 | 2168 ft | 74 kts | 194° |
| 2026-05-07 22:41 | -37.12886 | -59.21211 | 2149 ft | 73 kts | 194° |
| 2026-05-07 22:41 | -37.13384 | -59.21306 | 2066 ft | 69 kts | 194° |
| 2026-05-07 22:41 | -37.13858 | -59.21376 | 1928 ft | 69 kts | 195° |
| 2026-05-07 22:41 | -37.14334 | -59.21463 | 1853 ft | 67 kts | 194° |
| 2026-05-07 22:42 | -37.14774 | -59.21516 | 1773 ft | 64 kts | 192° |
| 2026-05-07 22:42 | -37.15225 | -59.21562 | 1703 ft | 64 kts | 193° |
| 2026-05-07 22:42 | -37.15674 | -59.21639 | 1616 ft | 65 kts | 194° |
| 2026-05-07 22:42 | -37.16116 | -59.21710 | 1545 ft | 64 kts | 195° |
| 2026-05-07 22:43 | -37.16582 | -59.21812 | 1440 ft | 66 kts | 197° |
| 2026-05-07 22:43 | -37.17017 | -59.21948 | 1349 ft | 65 kts | 201° |
| 2026-05-07 22:43 | -37.17471 | -59.22069 | 1254 ft | 66 kts | 195° |
| 2026-05-07 22:43 | -37.17928 | -59.22151 | 1173 ft | 66 kts | 192° |
| 2026-05-07 22:44 | -37.18400 | -59.22215 | 1078 ft | 68 kts | 192° |
| 2026-05-07 22:44 | -37.18877 | -59.22280 | 1015 ft | 69 kts | 192° |
| 2026-05-07 22:44 | -37.19366 | -59.22346 | 966 ft | 68 kts | 192° |
| 2026-05-07 22:44 | -37.19841 | -59.22413 | 874 ft | 70 kts | 192° |
| 2026-05-07 22:45 | -37.20322 | -59.22480 | 821 ft | 69 kts | 193° |
| 2026-05-07 22:45 | -37.20807 | -59.22552 | 764 ft | 69 kts | 191° |
| 2026-05-07 22:45 | -37.21281 | -59.22621 | 691 ft | 70 kts | 190° |
| 2026-05-07 22:45 | -37.21775 | -59.22677 | 642 ft | 71 kts | 188° |
| 2026-05-07 22:46 | -37.22271 | -59.22725 | 583 ft | 73 kts | 190° |
| 2026-05-07 22:46 | -37.22720 | -59.22781 | 564 ft | 52 kts | 186° |
| 2026-05-07 22:46 | -37.23037 | -59.22815 | 568 ft | 41 kts | 185° |
| 2026-05-07 22:46 | -37.23308 | -59.22844 | 570 ft | 36 kts | 185° |
| 2026-05-07 22:47 | -37.23549 | -59.22871 | 575 ft | 33 kts | 186° |
| 2026-05-07 22:47 | -37.23775 | -59.22898 | 580 ft | 31 kts | 185° |
| 2026-05-07 22:47 | -37.23992 | -59.22920 | 582 ft | 31 kts | 185° |
| 2026-05-07 22:47 | -37.24167 | -59.22972 | 584 ft | 19 kts | 230° |
| 2026-05-07 22:48 | -37.24114 | -59.23105 | 584 ft | 20 kts | 312° |
| 2026-05-07 22:48 | -37.24028 | -59.23230 | 584 ft | 17 kts | 270° |
| 2026-05-07 22:48 | -37.24073 | -59.23324 | 584 ft | 8 kts | 276° |
| 2026-05-07 22:48 | -37.24053 | -59.23365 | 584 ft | 4 kts | 326° |
| 2026-05-07 22:49 | -37.24043 | -59.23370 | 584 ft | 0 kts | 353° |